Portada
METAR-TAF:

METAR-TAF

Aeropuertos :

Guilin, China

latitud: 25-20N, longitud: 110-18E, altitud: 166 m

Observación

El informe se hizo hace 1 hora y 6 minutos, a las 05:00 UTC
Viento 4 kt con dirección variable
Temperatura 35°C
Humedad 53%
Presión 1001 hPa
Visibilidad 10 km o más
Nubes dispersas a una altura de 3300 ft

METAR: ZGKL 210500Z VRB02MPS 9999 SCT033 35/24 Q1001 NOSIG

Hora: 14:06 (06:06 UTC)

Pronóstico

El informe se hizo hace 10 horas y 22 minutos, a las 19:44 UTC
Pronóstico válido del 21 a las 00 UTC al 21 a las 24 UTC
Viento 6 kt del sur
Visibilidad 10 km o más
Nubes dispersas a una altura de 4000 ft
Temporalmente
del 21 a las 06 UTC al 21 a las 12 UTC
Escasas nubes a una altura de 3300 ft, Cumulonimbus.
Cielo nuboso a una altura de 4000 ft

TAF: ZGKL 201944Z 2100/2124 17003MPS 9999 SCT040 TX36/2107Z TN24/2122Z TEMPO 2106/2112 FEW033CB BKN040

Observaciones y pronósticos meteorológicos de más de 4000 aeropuertos (mensajes METAR y TAF).

Los puntos amarillos y rojos representan las estaciones disponibles.

Ponga el ratón en el punto deseado para ver el nombre de la estación.

Haga clic para ver las observaciones y los pronósticos meteorológicos.

Para cambiar el mapa : haga clic en los botones verdes con una cruz de color negro para hacer un zoom, en el botón verde con un guión para alejar o en las flechas verdes para mapas adyacentes.


METAR-TAF: